createdAt,value
2023-01-05T00:01:45.895Z,14.06
2023-01-05T00:04:13.310Z,14.08
2023-01-05T00:06:41.114Z,14.08
2023-01-05T00:09:12.013Z,14.08
2023-01-05T00:11:57.176Z,14.07
2023-01-05T00:14:46.677Z,14.08
2023-01-05T00:17:43.084Z,14.08
2023-01-05T00:20:37.783Z,14.08
2023-01-05T00:23:05.745Z,14.05
2023-01-05T00:25:37.437Z,14.08
2023-01-05T00:28:04.833Z,14.09
2023-01-05T00:30:40.005Z,14.10
2023-01-05T00:33:19.179Z,14.11
2023-01-05T00:35:45.960Z,14.11
2023-01-05T00:38:12.775Z,14.12
2023-01-05T00:40:39.821Z,14.12
2023-01-05T00:43:06.851Z,14.12
2023-01-05T00:45:33.754Z,14.11
2023-01-05T00:48:00.583Z,14.10
2023-01-05T00:50:27.784Z,14.07
2023-01-05T00:52:54.566Z,14.07
2023-01-05T00:55:21.392Z,14.05
2023-01-05T00:57:48.190Z,14.04
2023-01-05T01:00:18.418Z,14.00
2023-01-05T01:02:45.297Z,13.97
2023-01-05T01:05:12.521Z,13.94
2023-01-05T01:07:39.366Z,13.90
2023-01-05T01:10:07.521Z,13.88
2023-01-05T01:12:34.447Z,13.85
2023-01-05T01:15:01.230Z,13.84
2023-01-05T01:17:28.114Z,13.84
2023-01-05T01:19:54.921Z,13.84
2023-01-05T01:22:21.695Z,13.85
2023-01-05T01:24:48.466Z,13.86
2023-01-05T01:27:15.480Z,13.87
2023-01-05T01:29:42.257Z,13.88
2023-01-05T01:32:09.042Z,13.87
2023-01-05T01:34:35.974Z,13.88
2023-01-05T01:39:28.504Z,13.88
2023-01-05T01:41:55.287Z,13.86
2023-01-05T01:44:56.089Z,13.85
2023-01-05T01:47:33.334Z,13.86
2023-01-05T01:50:31.819Z,13.86
2023-01-05T01:53:12.209Z,13.88
2023-01-05T01:55:40.120Z,13.86
2023-01-05T01:58:11.281Z,13.85
2023-01-05T02:00:40.281Z,13.84
2023-01-05T02:03:07.151Z,13.83
2023-01-05T02:05:37.115Z,13.81
2023-01-05T02:08:10.890Z,13.80
2023-01-05T02:11:21.644Z,13.79
2023-01-05T02:13:48.265Z,13.78
2023-01-05T02:16:23.112Z,13.79
2023-01-05T02:19:21.977Z,13.78
2023-01-05T02:22:18.639Z,13.76
2023-01-05T02:25:29.342Z,13.74
2023-01-05T02:28:13.958Z,13.74
2023-01-05T02:30:59.722Z,13.68
2023-01-05T02:33:32.901Z,13.69
2023-01-05T02:36:35.729Z,13.70
2023-01-05T02:39:15.498Z,13.70
2023-01-05T02:42:04.018Z,13.70
2023-01-05T02:44:33.558Z,13.71
2023-01-05T02:47:07.013Z,13.74
2023-01-05T02:49:40.158Z,13.75
2023-01-05T02:52:10.008Z,13.76
2023-01-05T02:54:48.015Z,13.79
2023-01-05T02:57:46.148Z,13.80
2023-01-05T03:00:40.364Z,13.80
2023-01-05T03:03:24.240Z,13.82
2023-01-05T03:06:06.716Z,13.81
2023-01-05T03:08:40.995Z,13.81
2023-01-05T03:11:27.881Z,13.76
2023-01-05T03:14:05.407Z,13.79
2023-01-05T03:16:37.774Z,13.80
2023-01-05T03:19:31.059Z,13.83
2023-01-05T03:22:18.365Z,13.84
2023-01-05T03:25:04.069Z,13.82
2023-01-05T03:27:50.818Z,13.82
2023-01-05T03:30:36.663Z,13.83
2023-01-05T03:33:48.841Z,13.83
2023-01-05T03:36:18.590Z,13.82
2023-01-05T03:38:47.279Z,13.82
2023-01-05T03:41:16.406Z,13.83
2023-01-05T03:43:43.636Z,13.84
2023-01-05T03:46:16.973Z,13.85
2023-01-05T03:48:43.885Z,13.83
2023-01-05T03:51:10.818Z,13.86
2023-01-05T03:53:37.575Z,13.86
2023-01-05T03:56:04.718Z,13.86
2023-01-05T03:58:31.467Z,13.88
2023-01-05T04:00:58.200Z,13.88
2023-01-05T04:03:29.568Z,13.90
2023-01-05T04:05:58.615Z,13.91
2023-01-05T04:08:25.412Z,13.90
2023-01-05T04:10:53.483Z,13.91
2023-01-05T04:13:20.675Z,13.92
2023-01-05T04:15:47.872Z,13.92
2023-01-05T04:18:14.889Z,13.95
2023-01-05T04:20:41.874Z,13.95
2023-01-05T04:23:08.651Z,13.93
2023-01-05T04:25:35.432Z,13.92
2023-01-05T04:28:02.232Z,13.91
2023-01-05T04:30:29.018Z,13.91
2023-01-05T04:32:55.828Z,13.89
2023-01-05T04:35:22.656Z,13.88
2023-01-05T04:37:49.430Z,13.86
2023-01-05T04:40:16.302Z,13.82
2023-01-05T04:42:43.079Z,13.79
2023-01-05T04:45:10.763Z,13.75
2023-01-05T04:47:37.531Z,13.75
2023-01-05T04:50:04.890Z,13.72
2023-01-05T04:52:31.683Z,13.71
2023-01-05T04:54:58.467Z,13.69
2023-01-05T04:57:25.296Z,13.67
2023-01-05T04:59:52.088Z,13.65
2023-01-05T05:02:19.039Z,13.65
2023-01-05T05:04:45.890Z,13.64
2023-01-05T05:07:12.664Z,13.63
2023-01-05T05:09:39.435Z,13.63
2023-01-05T05:12:06.505Z,13.63
2023-01-05T05:14:33.288Z,13.63
2023-01-05T05:17:00.191Z,13.64
2023-01-05T05:19:27.023Z,13.66
2023-01-05T05:21:53.824Z,13.68
2023-01-05T05:24:20.603Z,13.71
2023-01-05T05:26:47.403Z,13.72
2023-01-05T05:29:14.154Z,13.73
2023-01-05T05:31:40.984Z,13.76
2023-01-05T05:34:07.813Z,13.74
2023-01-05T05:36:36.095Z,13.75
2023-01-05T05:39:02.840Z,13.75
2023-01-05T05:41:29.642Z,13.77
2023-01-05T05:44:00.747Z,13.77
2023-01-05T05:46:28.253Z,13.79
2023-01-05T05:48:56.165Z,13.79
2023-01-05T05:51:23.794Z,13.80
2023-01-05T05:53:51.241Z,13.79
2023-01-05T05:56:18.702Z,13.80
2023-01-05T05:58:45.590Z,13.81
2023-01-05T06:01:12.801Z,13.82
2023-01-05T06:03:39.722Z,13.82
2023-01-05T06:06:07.021Z,13.83
2023-01-05T06:08:33.899Z,13.83
2023-01-05T06:11:00.749Z,13.82
2023-01-05T06:13:27.794Z,13.81
2023-01-05T06:15:54.893Z,13.83
2023-01-05T06:18:22.256Z,13.82
2023-01-05T06:20:49.040Z,13.82
2023-01-05T06:23:15.814Z,13.84
2023-01-05T06:25:43.286Z,13.84
2023-01-05T06:28:10.113Z,13.84
2023-01-05T06:30:36.866Z,13.85
2023-01-05T06:33:03.898Z,13.85
2023-01-05T06:35:30.718Z,13.85
2023-01-05T06:37:57.483Z,13.84
2023-01-05T06:40:24.235Z,13.84
2023-01-05T06:42:51.004Z,13.82
2023-01-05T06:45:17.858Z,13.81
2023-01-05T06:47:45.016Z,13.79
2023-01-05T06:50:11.902Z,13.75
2023-01-05T06:52:40.148Z,13.75
2023-01-05T06:55:09.884Z,13.76
2023-01-05T06:57:37.164Z,13.77
2023-01-05T07:00:10.934Z,13.78
2023-01-05T07:02:38.179Z,13.76
2023-01-05T07:05:05.635Z,13.77
2023-01-05T07:07:32.709Z,13.79
2023-01-05T07:09:59.749Z,13.81
2023-01-05T07:12:26.692Z,13.80
2023-01-05T07:14:57.464Z,13.81
2023-01-05T07:17:25.258Z,13.81
2023-01-05T07:19:52.025Z,13.79
2023-01-05T07:22:18.780Z,13.82
2023-01-05T07:24:46.166Z,13.81
2023-01-05T07:27:12.943Z,13.81
2023-01-05T07:29:39.713Z,13.81
2023-01-05T07:32:06.659Z,13.81
2023-01-05T07:34:33.470Z,13.81
2023-01-05T07:37:00.307Z,13.82
2023-01-05T07:39:27.189Z,13.80
2023-01-05T07:41:53.956Z,13.78
2023-01-05T07:44:20.748Z,13.76
2023-01-05T07:46:47.608Z,13.72
2023-01-05T07:49:15.243Z,13.68
2023-01-05T07:51:42.029Z,13.65
2023-01-05T07:54:08.816Z,13.63
2023-01-05T07:56:35.581Z,13.62
2023-01-05T07:59:02.396Z,13.59
2023-01-05T08:01:29.312Z,13.57
2023-01-05T08:03:56.225Z,13.57
2023-01-05T08:06:25.051Z,13.54
2023-01-05T08:08:51.823Z,13.54
2023-01-05T08:11:21.747Z,13.52
2023-01-05T08:14:00.883Z,13.51
2023-01-05T08:16:32.366Z,13.51
2023-01-05T08:18:59.917Z,13.50
2023-01-05T08:21:26.953Z,13.50
2023-01-05T08:23:54.120Z,13.51
2023-01-05T08:26:23.564Z,13.53
2023-01-05T08:28:51.461Z,13.53
2023-01-05T08:31:22.740Z,13.54
2023-01-05T08:33:50.173Z,13.53
2023-01-05T08:36:20.233Z,13.53
2023-01-05T08:38:56.049Z,13.51
2023-01-05T08:41:27.954Z,13.51
2023-01-05T08:43:57.656Z,13.51
2023-01-05T08:46:27.622Z,13.52
2023-01-05T08:48:57.422Z,13.50
2023-01-05T08:51:24.757Z,13.50
2023-01-05T08:53:51.709Z,13.50
2023-01-05T08:56:19.153Z,13.49
2023-01-05T08:58:46.045Z,13.49
2023-01-05T09:01:16.822Z,13.53
2023-01-05T09:03:44.498Z,13.50
2023-01-05T09:06:13.214Z,13.49
2023-01-05T09:08:42.193Z,13.49
2023-01-05T09:11:18.209Z,13.49
2023-01-05T09:13:54.610Z,13.51
2023-01-05T09:16:56.862Z,13.49
2023-01-05T09:19:13.541Z,13.50
2023-01-05T09:21:40.494Z,13.51
2023-01-05T09:24:08.851Z,13.53
2023-01-05T09:26:35.639Z,13.52
2023-01-05T09:29:02.439Z,13.53
2023-01-05T09:31:29.665Z,13.54
2023-01-05T09:34:00.371Z,13.56
2023-01-05T09:36:27.431Z,13.55
2023-01-05T09:38:58.364Z,13.55
2023-01-05T09:41:52.271Z,13.56
2023-01-05T09:44:46.440Z,13.53
2023-01-05T09:47:37.697Z,13.52
2023-01-05T09:50:17.923Z,13.53
2023-01-05T09:52:44.767Z,13.53
2023-01-05T09:55:20.960Z,13.54
2023-01-05T09:58:00.149Z,13.55
2023-01-05T10:00:28.383Z,13.54
2023-01-05T10:03:53.632Z,13.52
2023-01-05T10:06:15.000Z,13.38
2023-01-05T10:08:50.037Z,13.25
2023-01-05T10:12:16.878Z,13.09
2023-01-05T10:14:50.435Z,12.97
2023-01-05T10:20:43.642Z,12.82
2023-01-05T10:23:50.911Z,12.74
2023-01-05T10:27:14.399Z,12.71
2023-01-05T10:29:47.737Z,12.70
2023-01-05T10:32:50.502Z,12.72
2023-01-05T10:35:59.096Z,12.75
2023-01-05T10:38:50.172Z,12.79
2023-01-05T10:41:59.121Z,12.77
2023-01-05T10:44:56.579Z,12.78
2023-01-05T10:47:26.141Z,12.79
2023-01-05T10:49:53.582Z,12.79
2023-01-05T10:52:22.413Z,12.81
2023-01-05T10:54:58.551Z,12.85
2023-01-05T10:57:40.286Z,12.84
2023-01-05T11:00:19.806Z,12.85
2023-01-05T11:03:03.149Z,12.83
2023-01-05T11:05:45.249Z,12.82
2023-01-05T11:08:27.241Z,12.82
2023-01-05T11:10:58.981Z,12.83
2023-01-05T11:13:31.862Z,12.83
2023-01-05T11:16:16.117Z,12.86
2023-01-05T11:19:01.727Z,12.86
2023-01-05T11:21:45.937Z,12.88
2023-01-05T11:24:24.913Z,12.90
2023-01-05T11:27:01.717Z,12.96
2023-01-05T11:29:29.592Z,12.98
2023-01-05T11:32:10.942Z,13.02
2023-01-05T11:34:47.129Z,13.05
2023-01-05T11:37:28.596Z,13.05
2023-01-05T11:40:00.953Z,13.08
2023-01-05T11:42:30.523Z,13.11
2023-01-05T11:45:17.606Z,13.13
2023-01-05T11:48:04.976Z,13.11
2023-01-05T11:50:42.898Z,13.10
2023-01-05T11:53:33.734Z,13.11
2023-01-05T11:56:22.578Z,13.08
2023-01-05T11:58:55.012Z,13.08
2023-01-05T12:01:44.514Z,13.10
2023-01-05T12:04:48.154Z,13.11
2023-01-05T12:07:38.426Z,13.11
2023-01-05T12:10:29.484Z,13.09
2023-01-05T12:13:30.275Z,13.09
2023-01-05T12:16:38.889Z,13.08
2023-01-05T12:19:18.546Z,13.06
2023-01-05T12:21:51.401Z,13.03
2023-01-05T12:24:42.667Z,13.03
2023-01-05T12:27:32.830Z,13.04
2023-01-05T12:37:00.399Z,13.04
2023-01-05T12:40:11.246Z,13.05
2023-01-05T12:42:58.572Z,13.07
2023-01-05T12:45:57.428Z,13.06
2023-01-05T12:48:32.998Z,13.03
2023-01-05T12:51:26.507Z,13.02
2023-01-05T12:54:46.518Z,12.97
2023-01-05T12:57:38.708Z,12.95
2023-01-05T13:00:14.998Z,12.96
2023-01-05T13:02:49.512Z,12.97
2023-01-05T13:05:51.038Z,12.98
2023-01-05T13:08:24.786Z,12.95
2023-01-05T13:11:06.845Z,12.96
2023-01-05T13:13:40.313Z,12.98
2023-01-05T13:16:16.510Z,12.97
2023-01-05T13:18:54.038Z,12.97
2023-01-05T13:21:23.051Z,12.97
2023-01-05T13:23:59.903Z,12.99
2023-01-05T13:26:26.724Z,12.98
2023-01-05T13:29:02.691Z,12.96
2023-01-05T13:32:04.810Z,12.94
2023-01-05T13:35:15.196Z,12.89
2023-01-05T13:38:23.737Z,12.88
2023-01-05T13:41:24.405Z,12.84
2023-01-05T13:44:11.158Z,12.85
2023-01-05T13:47:13.033Z,12.86
2023-01-05T13:50:23.039Z,12.86
2023-01-05T13:53:06.756Z,12.86
2023-01-05T13:55:45.442Z,12.89
2023-01-05T13:58:39.692Z,12.89
2023-01-05T14:01:12.336Z,12.92
2023-01-05T14:03:46.643Z,12.92
2023-01-05T14:06:27.510Z,12.94
2023-01-05T14:11:36.900Z,12.97
2023-01-05T14:14:31.307Z,12.99
2023-01-05T14:16:58.385Z,12.98
2023-01-05T14:19:50.302Z,12.97
2023-01-05T14:22:33.546Z,12.96
2023-01-05T14:25:38.632Z,12.96
2023-01-05T14:28:43.326Z,12.95
2023-01-05T14:31:18.912Z,12.94
2023-01-05T14:33:52.223Z,12.94
2023-01-05T14:36:33.303Z,12.95
2023-01-05T14:39:05.018Z,12.96
2023-01-05T14:41:31.957Z,12.95
2023-01-05T14:44:17.452Z,12.97
2023-01-05T14:46:55.622Z,12.98
2023-01-05T14:49:43.652Z,12.97
2023-01-05T14:52:22.058Z,12.98
2023-01-05T14:54:52.951Z,12.98
2023-01-05T14:57:27.259Z,12.99
2023-01-05T15:00:10.928Z,13.00
2023-01-05T15:03:12.383Z,13.00
2023-01-05T15:06:28.364Z,13.01
2023-01-05T15:09:01.087Z,13.01
2023-01-05T15:11:36.707Z,13.02
2023-01-05T15:14:37.417Z,13.03
2023-01-05T15:17:29.368Z,13.02
2023-01-05T15:20:17.704Z,13.01
2023-01-05T15:23:36.613Z,12.99
2023-01-05T15:26:28.094Z,12.99
2023-01-05T15:29:42.187Z,12.98
2023-01-05T15:32:22.013Z,12.95
2023-01-05T15:35:08.211Z,12.94
2023-01-05T15:37:38.894Z,12.95
2023-01-05T15:40:31.575Z,12.93
2023-01-05T15:43:02.772Z,12.91
2023-01-05T15:45:36.143Z,12.90
2023-01-05T15:48:09.651Z,12.88
2023-01-05T15:50:46.595Z,12.87
2023-01-05T15:53:30.188Z,12.86
2023-01-05T15:55:58.710Z,12.83
2023-01-05T15:58:29.889Z,12.82
2023-01-05T16:01:08.524Z,12.83
2023-01-05T16:03:37.978Z,12.80
2023-01-05T16:06:21.420Z,12.80
2023-01-05T16:08:51.618Z,12.79
2023-01-05T16:11:26.678Z,12.79
2023-01-05T16:14:38.660Z,12.79
2023-01-05T16:17:15.791Z,12.77
2023-01-05T16:20:09.494Z,12.74
2023-01-05T16:22:45.580Z,12.75
2023-01-05T16:25:22.072Z,12.76
2023-01-05T16:27:58.497Z,12.76
2023-01-05T16:30:35.897Z,12.78
2023-01-05T16:33:12.033Z,12.79
2023-01-05T16:35:55.165Z,12.79
2023-01-05T16:38:30.369Z,12.79
2023-01-05T16:41:09.886Z,12.81
2023-01-05T16:43:39.715Z,12.80
2023-01-05T16:46:39.017Z,12.80
2023-01-05T16:49:49.902Z,12.79
2023-01-05T16:52:27.234Z,12.77
2023-01-05T16:55:27.678Z,12.80
2023-01-05T16:57:55.606Z,12.80
2023-01-05T17:00:28.307Z,12.82
2023-01-05T17:03:00.705Z,12.82
2023-01-05T17:05:32.085Z,12.84
2023-01-05T17:08:20.556Z,12.85
2023-01-05T17:10:47.837Z,12.85
2023-01-05T17:13:35.899Z,12.86
2023-01-05T17:16:03.957Z,12.87
2023-01-05T17:18:31.251Z,12.89
2023-01-05T17:20:59.597Z,12.90
2023-01-05T17:23:33.707Z,12.91
2023-01-05T17:26:06.466Z,12.93
2023-01-05T17:28:33.635Z,12.92
2023-01-05T17:31:00.619Z,12.93
2023-01-05T17:33:27.565Z,12.94
2023-01-05T17:35:55.153Z,12.93
2023-01-05T17:38:21.974Z,12.94
2023-01-05T17:40:49.225Z,12.95
2023-01-05T17:43:16.256Z,12.95
2023-01-05T17:45:44.303Z,12.94
2023-01-05T17:50:43.744Z,12.95
2023-01-05T17:53:10.842Z,12.95
2023-01-05T17:55:39.449Z,12.93
2023-01-05T17:58:06.309Z,12.93
2023-01-05T18:00:39.501Z,12.93
2023-01-05T18:03:06.289Z,12.92
2023-01-05T18:05:33.084Z,12.92
2023-01-05T18:08:00.196Z,12.91
2023-01-05T18:10:29.120Z,12.92
2023-01-05T18:12:56.654Z,12.90
2023-01-05T18:15:23.628Z,12.91
2023-01-05T18:17:50.432Z,12.90
2023-01-05T18:20:20.028Z,12.91
2023-01-05T18:22:48.387Z,12.90
2023-01-05T18:25:15.408Z,12.91
2023-01-05T18:27:42.228Z,12.91
2023-01-05T18:30:11.166Z,12.93
2023-01-05T18:32:39.021Z,12.92
2023-01-05T18:35:09.886Z,12.93
2023-01-05T18:37:39.051Z,12.92
2023-01-05T18:40:06.914Z,12.91
2023-01-05T18:42:33.685Z,12.91
2023-01-05T18:45:08.946Z,12.92
2023-01-05T18:47:46.512Z,12.92
2023-01-05T18:50:13.435Z,12.91
2023-01-05T18:52:40.201Z,12.93
2023-01-05T18:55:07.287Z,12.95
2023-01-05T18:57:34.272Z,12.96
2023-01-05T19:00:01.151Z,12.97
2023-01-05T19:02:28.425Z,12.98
2023-01-05T19:04:55.785Z,12.99
2023-01-05T19:07:22.661Z,12.99
2023-01-05T19:09:49.455Z,12.99
2023-01-05T19:12:16.387Z,12.99
2023-01-05T19:14:43.158Z,12.99
2023-01-05T19:17:09.977Z,13.00
2023-01-05T19:19:36.758Z,12.99
2023-01-05T19:22:03.560Z,13.00
2023-01-05T19:24:31.758Z,12.99
2023-01-05T19:26:58.763Z,12.99
2023-01-05T19:29:25.612Z,12.98
2023-01-05T19:31:52.412Z,12.96
2023-01-05T19:34:19.605Z,12.98
2023-01-05T19:36:49.085Z,12.99
2023-01-05T19:39:19.483Z,12.99
2023-01-05T19:41:48.329Z,12.98
2023-01-05T19:44:21.109Z,12.98
2023-01-05T19:46:54.651Z,12.98
2023-01-05T19:49:25.703Z,12.96
2023-01-05T19:51:53.160Z,12.96
2023-01-05T19:54:22.328Z,12.96
2023-01-05T19:56:49.153Z,12.96
2023-01-05T19:59:26.390Z,12.97
2023-01-05T20:01:54.793Z,12.96
2023-01-05T20:04:21.638Z,12.95
2023-01-05T20:06:48.429Z,12.96
2023-01-05T20:09:18.796Z,12.93
2023-01-05T20:11:48.797Z,12.92
2023-01-05T20:14:30.789Z,12.93
2023-01-05T20:17:05.708Z,12.91
2023-01-05T20:19:35.236Z,12.91
2023-01-05T20:22:05.720Z,12.92
2023-01-05T20:24:36.069Z,12.91
2023-01-05T20:27:08.407Z,12.90
2023-01-05T20:29:35.889Z,12.89
2023-01-05T20:32:08.206Z,12.91
2023-01-05T20:34:38.371Z,12.89
2023-01-05T20:37:08.010Z,12.89
2023-01-05T20:39:36.023Z,12.89
2023-01-05T20:42:05.882Z,12.88
2023-01-05T20:44:37.045Z,12.89
2023-01-05T20:47:06.441Z,12.89
2023-01-05T20:49:36.669Z,12.86
2023-01-05T20:52:04.969Z,12.87
2023-01-05T20:54:31.778Z,12.85
2023-01-05T20:56:58.575Z,12.84
2023-01-05T20:59:30.070Z,12.84
2023-01-05T21:01:58.876Z,12.85
2023-01-05T21:04:27.771Z,12.84
2023-01-05T21:06:54.711Z,12.85
2023-01-05T21:09:25.430Z,12.84
2023-01-05T21:11:52.206Z,12.81
2023-01-05T21:14:19.905Z,12.80
2023-01-05T21:16:51.646Z,12.81
2023-01-05T21:19:22.924Z,12.81
2023-01-05T21:21:55.674Z,12.80
2023-01-05T21:24:23.334Z,12.79
2023-01-05T21:26:50.194Z,12.79
2023-01-05T21:29:20.131Z,12.80
2023-01-05T21:31:46.979Z,12.78
2023-01-05T21:34:14.061Z,12.75
2023-01-05T21:36:45.096Z,12.72
2023-01-05T21:39:18.871Z,12.68
2023-01-05T21:42:05.886Z,12.63
2023-01-05T21:44:33.394Z,12.59
2023-01-05T21:47:00.287Z,12.55
2023-01-05T21:49:27.321Z,12.51
2023-01-05T21:52:12.836Z,12.47
2023-01-05T21:54:57.925Z,12.44
2023-01-05T21:57:24.967Z,12.43
2023-01-05T21:59:51.827Z,12.42
2023-01-05T22:02:18.744Z,12.41
2023-01-05T22:04:45.925Z,12.44
2023-01-05T22:07:12.805Z,12.45
2023-01-05T22:09:39.675Z,12.47
2023-01-05T22:12:08.649Z,12.50
2023-01-05T22:14:39.696Z,12.52
2023-01-05T22:17:08.452Z,12.53
2023-01-05T22:19:35.698Z,12.55
2023-01-05T22:22:02.508Z,12.56
2023-01-05T22:24:29.322Z,12.59
2023-01-05T22:26:56.384Z,12.60
2023-01-05T22:29:23.553Z,12.63
2023-01-05T22:31:50.737Z,12.64
2023-01-05T22:34:17.787Z,12.65
2023-01-05T22:36:44.662Z,12.65
2023-01-05T22:39:12.241Z,12.68
2023-01-05T22:41:39.145Z,12.68
2023-01-05T22:44:06.680Z,12.70
2023-01-05T22:46:34.029Z,12.72
2023-01-05T22:49:00.847Z,12.73
2023-01-05T22:51:31.513Z,12.74
2023-01-05T22:53:59.325Z,12.75
2023-01-05T22:56:31.685Z,12.76
2023-01-05T22:58:59.054Z,12.76
2023-01-05T23:01:37.007Z,12.78
2023-01-05T23:04:06.167Z,12.78
2023-01-05T23:06:33.508Z,12.78
2023-01-05T23:09:00.847Z,12.79
2023-01-05T23:11:34.612Z,12.81
2023-01-05T23:14:04.385Z,12.81
2023-01-05T23:16:32.581Z,12.83
2023-01-05T23:18:59.409Z,12.82
2023-01-05T23:21:26.869Z,12.84
2023-01-05T23:23:56.320Z,12.85
2023-01-05T23:26:25.328Z,12.85
2023-01-05T23:28:52.381Z,12.85
2023-01-05T23:31:25.240Z,12.85
2023-01-05T23:33:54.736Z,12.85
2023-01-05T23:36:23.826Z,12.85
2023-01-05T23:38:50.763Z,12.85
2023-01-05T23:41:17.938Z,12.88
2023-01-05T23:43:46.069Z,12.88
2023-01-05T23:46:16.903Z,12.90
2023-01-05T23:48:44.233Z,12.92
2023-01-05T23:51:16.850Z,12.93
2023-01-05T23:53:47.605Z,12.93
2023-01-05T23:56:19.186Z,12.94
2023-01-05T23:58:46.289Z,12.95
